createdAt,value
2017-06-11T00:00:43.891Z,64.22
2017-06-11T00:01:59.336Z,63.73
2017-06-11T00:03:14.771Z,63.54
2017-06-11T00:04:30.390Z,63.54
2017-06-11T00:05:45.850Z,64.31
2017-06-11T00:06:59.978Z,64.6
2017-06-11T00:08:14.205Z,64.6
2017-06-11T00:09:29.923Z,64.31
2017-06-11T00:10:45.639Z,64.12
2017-06-11T00:12:14.671Z,64.02
2017-06-11T00:13:30.172Z,64.22
2017-06-11T00:14:45.657Z,64.22
2017-06-11T00:16:01.308Z,64.12
2017-06-11T00:17:15.346Z,63.83
2017-06-11T00:18:29.504Z,63.54
2017-06-11T00:19:44.964Z,63.54
2017-06-11T00:21:00.366Z,63.45
2017-06-11T00:22:15.825Z,63.45
2017-06-11T00:23:31.273Z,63.64
2017-06-11T00:24:46.745Z,63.92
2017-06-11T00:26:02.209Z,64.12
2017-06-11T00:27:17.663Z,64.12
2017-06-11T00:28:31.813Z,64.22
2017-06-11T00:29:46.943Z,63.92
2017-06-11T00:31:02.592Z,63.64
2017-06-11T00:32:18.066Z,63.45
2017-06-11T00:33:33.478Z,63.54
2017-06-11T00:34:49.011Z,63.73
2017-06-11T00:36:18.060Z,63.35
2017-06-11T00:37:33.604Z,63.51
2017-06-11T00:38:49.266Z,63.51
2017-06-11T00:40:04.808Z,63.41
2017-06-11T00:41:51.097Z,64.09
2017-06-11T00:43:06.553Z,63.41
2017-06-11T00:44:21.959Z,63.41
2017-06-11T00:45:37.441Z,63.51
2017-06-11T00:46:52.919Z,63.99
2017-06-11T00:48:08.583Z,64.47
2017-06-11T00:49:24.076Z,64.37
2017-06-11T00:50:39.588Z,64.09
2017-06-11T00:51:55.107Z,63.6
2017-06-11T00:53:10.536Z,63.51
2017-06-11T00:54:25.607Z,63.41
2017-06-11T00:55:41.318Z,63.99
2017-06-11T00:56:56.792Z,64.09
2017-06-11T00:58:12.270Z,64.37
2017-06-11T00:59:27.838Z,64.18
2017-06-11T01:00:43.317Z,64.09
2017-06-11T01:01:58.783Z,64.09
2017-06-11T01:03:14.253Z,64.18
2017-06-11T01:04:29.980Z,64.56
2017-06-11T01:05:45.429Z,64.56
2017-06-11T01:07:00.878Z,64.56
2017-06-11T01:08:16.371Z,64.18
2017-06-11T01:09:31.818Z,64.47
2017-06-11T01:10:47.363Z,64.63
2017-06-11T01:12:02.801Z,64.53
2017-06-11T01:13:18.286Z,64.47
2017-06-11T01:14:33.725Z,64.43
2017-06-11T01:15:49.173Z,64.43
2017-06-11T01:17:04.625Z,64.34
2017-06-11T01:18:20.203Z,64.43
2017-06-11T01:19:35.696Z,64.43
2017-06-11T01:20:51.168Z,64.34
2017-06-11T01:22:06.651Z,64.25
2017-06-11T01:23:35.685Z,64.34
2017-06-11T01:24:51.100Z,64.34
2017-06-11T01:26:06.543Z,64.43
2017-06-11T01:27:21.978Z,64.53
2017-06-11T01:28:37.469Z,64.72
2017-06-11T01:29:52.701Z,64.02
2017-06-11T01:31:08.185Z,64.02
2017-06-11T01:32:23.653Z,64.43
2017-06-11T01:33:39.130Z,64.92
2017-06-11T01:34:54.523Z,64.59
2017-06-11T01:36:09.998Z,64.79
2017-06-11T01:37:25.451Z,64.89
2017-06-11T01:38:40.923Z,64.98
2017-06-11T01:39:56.362Z,65.27
2017-06-11T01:41:11.849Z,65.27
2017-06-11T01:42:27.298Z,65.27
2017-06-11T01:43:42.723Z,65.65
2017-06-11T01:44:58.195Z,65.36
2017-06-11T01:46:13.680Z,65.46
2017-06-11T01:47:29.155Z,65.56
2017-06-11T01:48:43.318Z,65.36
2017-06-11T01:50:29.645Z,66.13
2017-06-11T01:51:45.262Z,65.56
2017-06-11T01:52:59.429Z,65.94
2017-06-11T01:54:14.525Z,65.94
2017-06-11T01:55:28.260Z,66.33
2017-06-11T01:56:43.727Z,66.52
2017-06-11T01:57:59.382Z,66.03
2017-06-11T01:59:14.798Z,66.03
2017-06-11T02:00:28.937Z,66.03
2017-06-11T02:01:43.079Z,66.13
2017-06-11T02:02:58.547Z,66.13
2017-06-11T02:04:14.002Z,66.23
2017-06-11T02:05:29.427Z,66.61
2017-06-11T02:06:44.866Z,66.33
2017-06-11T02:08:00.350Z,66.61
2017-06-11T02:09:15.902Z,66.52
2017-06-11T02:10:30.084Z,66.13
2017-06-11T02:11:45.559Z,66.33
2017-06-11T02:13:01.087Z,66.42
2017-06-11T02:14:16.714Z,66.13
2017-06-11T02:15:32.219Z,66.23
2017-06-11T02:16:47.649Z,66.61
2017-06-11T02:18:03.159Z,66.23
2017-06-11T02:19:18.645Z,66.61
2017-06-11T02:20:34.094Z,66.61
2017-06-11T02:21:49.672Z,66.03
2017-06-11T02:23:05.192Z,66.03
2017-06-11T02:24:20.631Z,66.23
2017-06-11T02:25:36.051Z,66.23
2017-06-11T02:26:51.650Z,66.13
2017-06-11T02:28:07.054Z,66.23
2017-06-11T02:29:22.531Z,66.03
2017-06-11T02:30:37.996Z,66.03
2017-06-11T02:31:53.432Z,66.61
2017-06-11T02:33:08.599Z,66.52
2017-06-11T02:34:22.749Z,66.49
2017-06-11T02:35:38.253Z,66.42
2017-06-11T02:36:54.065Z,66.9
2017-06-11T02:38:08.133Z,66.58
2017-06-11T02:39:23.745Z,66.58
2017-06-11T02:40:39.212Z,66.49
2017-06-11T02:41:54.661Z,66.49
2017-06-11T02:43:10.107Z,67.06
2017-06-11T02:44:25.572Z,66.77
2017-06-11T02:45:41.029Z,67.63
2017-06-11T02:46:56.615Z,67.25
2017-06-11T02:48:12.058Z,66.96
2017-06-11T02:49:27.530Z,66.96
2017-06-11T02:50:43.009Z,67.25
2017-06-11T02:51:57.010Z,66.96
2017-06-11T02:53:12.627Z,66.96
2017-06-11T02:54:26.669Z,66.96
2017-06-11T02:55:42.061Z,66.86
2017-06-11T02:56:57.493Z,67.06
2017-06-11T02:58:12.927Z,67.16
2017-06-11T02:59:27.134Z,66.86
2017-06-11T03:00:42.627Z,66.96
2017-06-11T03:01:58.080Z,67.35
2017-06-11T03:03:13.562Z,67.25
2017-06-11T03:04:27.699Z,67.06
2017-06-11T03:05:43.099Z,67.44
2017-06-11T03:06:58.696Z,67.35
2017-06-11T03:08:14.187Z,67.83
2017-06-11T03:09:29.704Z,67.6
2017-06-11T03:10:45.145Z,67.35
2017-06-11T03:12:00.586Z,67.44
2017-06-11T03:13:16.103Z,67.69
2017-06-11T03:14:28.936Z,67.89
2017-06-11T03:15:43.285Z,67.69
2017-06-11T03:16:58.720Z,67.69
2017-06-11T03:18:12.746Z,67.79
2017-06-11T03:19:28.240Z,68.08
2017-06-11T03:20:43.754Z,67.99
2017-06-11T03:21:59.193Z,67.99
2017-06-11T03:23:13.396Z,67.99
2017-06-11T03:24:28.940Z,68.08
2017-06-11T03:25:43.112Z,68.08
2017-06-11T03:27:12.275Z,67.92
2017-06-11T03:28:28.366Z,68.02
2017-06-11T03:29:43.720Z,68.56
2017-06-11T03:30:59.165Z,68.59
2017-06-11T03:32:14.641Z,68.3
2017-06-11T03:33:30.071Z,68.59
2017-06-11T03:34:45.563Z,68.3
2017-06-11T03:36:01.000Z,68.3
2017-06-11T03:37:16.444Z,68.3
2017-06-11T03:38:32.087Z,68.3
2017-06-11T03:39:47.538Z,68.4
2017-06-11T03:41:03.014Z,68.59
2017-06-11T03:42:18.473Z,68.3
2017-06-11T03:43:33.954Z,68.3
2017-06-11T03:45:02.980Z,68.5
2017-06-11T03:46:18.437Z,68.5
2017-06-11T03:47:34.026Z,68.69
2017-06-11T03:48:48.127Z,68.34
2017-06-11T03:50:03.598Z,68.24
2017-06-11T03:51:18.984Z,68.24
2017-06-11T03:52:34.380Z,68.44
2017-06-11T03:53:49.942Z,67.86
2017-06-11T03:55:05.409Z,67.96
2017-06-11T03:56:20.893Z,67.57
2017-06-11T03:57:36.333Z,67.67
2017-06-11T03:58:51.937Z,67.67
2017-06-11T04:00:07.375Z,67.38
2017-06-11T04:01:23.138Z,67.47
2017-06-11T04:02:38.584Z,67.57
2017-06-11T04:03:54.330Z,67.47
2017-06-11T04:05:09.423Z,67.38
2017-06-11T04:06:24.899Z,67.57
2017-06-11T04:07:40.287Z,67.38
2017-06-11T04:08:55.762Z,66.8
2017-06-11T04:10:24.772Z,66.8
2017-06-11T04:11:38.910Z,67
2017-06-11T04:12:54.395Z,66.9
2017-06-11T04:14:09.848Z,67.19
2017-06-11T04:15:25.321Z,66.9
2017-06-11T04:16:40.782Z,67.29
2017-06-11T04:17:56.230Z,66.61
2017-06-11T04:19:11.840Z,66.52
2017-06-11T04:20:26.075Z,66.61
2017-06-11T04:21:41.728Z,66.71
2017-06-11T04:22:57.257Z,66.52
2017-06-11T04:24:12.883Z,66.71
2017-06-11T04:25:28.366Z,66.61
2017-06-11T04:26:43.878Z,66.8
2017-06-11T04:27:58.016Z,66.71
2017-06-11T04:29:13.437Z,66.61
2017-06-11T04:30:28.856Z,66.13
2017-06-11T04:31:44.282Z,66.26
2017-06-11T04:32:59.915Z,65.97
2017-06-11T04:34:14.065Z,66.07
2017-06-11T04:35:29.531Z,66.16
2017-06-11T04:36:44.997Z,66.26
2017-06-11T04:38:00.394Z,66.36
2017-06-11T04:39:15.846Z,66.55
2017-06-11T04:40:31.264Z,66.07
2017-06-11T04:41:46.356Z,66.26
2017-06-11T04:43:00.583Z,65.49
2017-06-11T04:44:16.066Z,65.97
2017-06-11T04:45:31.514Z,65.97
2017-06-11T04:46:46.623Z,65.97
2017-06-11T04:48:02.358Z,65.59
2017-06-11T04:49:17.793Z,65.2
2017-06-11T04:50:33.278Z,65.49
2017-06-11T04:51:48.752Z,65.59
2017-06-11T04:53:04.102Z,65.11
2017-06-11T04:54:19.190Z,65.3
2017-06-11T04:55:34.655Z,64.92
2017-06-11T04:56:50.081Z,64.76
2017-06-11T04:59:34.506Z,64.56
2017-06-11T05:00:49.949Z,64.37
2017-06-11T05:02:04.106Z,64.18
2017-06-11T05:03:19.559Z,64.85
2017-06-11T05:04:35.020Z,64.28
2017-06-11T05:05:50.512Z,63.99
2017-06-11T05:07:06.163Z,63.22
2017-06-11T05:08:21.585Z,63.41
2017-06-11T05:09:37.075Z,63.41
2017-06-11T05:10:52.563Z,63.51
2017-06-11T05:12:08.017Z,63.48
2017-06-11T05:13:23.546Z,63.41
2017-06-11T05:14:36.373Z,63.51
2017-06-11T05:15:52.210Z,63.51
2017-06-11T05:17:07.584Z,63.7
2017-06-11T05:18:21.405Z,63.12
2017-06-11T05:19:36.901Z,63.22
2017-06-11T05:20:52.387Z,62.93
2017-06-11T05:22:07.833Z,63.02
2017-06-11T05:23:20.660Z,62.64
2017-06-11T05:24:36.101Z,62.55
2017-06-11T05:25:51.265Z,62.45
2017-06-11T05:27:04.076Z,62.55
2017-06-11T05:28:19.520Z,62.68
2017-06-11T05:29:35.021Z,62.38
2017-06-11T05:30:49.408Z,62
2017-06-11T05:32:04.965Z,62.19
2017-06-11T05:33:20.497Z,61.91
2017-06-11T05:34:35.942Z,61.52
2017-06-11T05:35:51.429Z,61.61
2017-06-11T05:37:06.875Z,61.14
2017-06-11T05:38:22.300Z,61.14
2017-06-11T05:39:36.478Z,61.04
2017-06-11T05:40:52.134Z,60.66
2017-06-11T05:42:07.573Z,61.04
2017-06-11T05:43:21.597Z,60.66
2017-06-11T05:44:37.113Z,60.69
2017-06-11T05:45:52.580Z,60.21
2017-06-11T05:47:08.027Z,60.59
2017-06-11T05:48:23.580Z,60.3
2017-06-11T05:49:39.107Z,60.11
2017-06-11T05:50:53.244Z,60.3
2017-06-11T05:52:07.296Z,59.72
2017-06-11T05:53:22.926Z,59.92
2017-06-11T05:54:37.096Z,59.53
2017-06-11T05:55:52.728Z,59.34
2017-06-11T05:57:08.528Z,59.82
2017-06-11T05:58:23.971Z,59.56
2017-06-11T05:59:39.408Z,59.17
2017-06-11T06:00:52.275Z,59.08
2017-06-11T06:02:07.878Z,58.98
2017-06-11T06:03:23.311Z,58.5
2017-06-11T06:04:38.783Z,58.79
2017-06-11T06:05:54.254Z,58.4
2017-06-11T06:07:09.684Z,58.22
2017-06-11T06:08:25.085Z,57.83
2017-06-11T06:09:40.547Z,57.73
2017-06-11T06:10:56.033Z,57.83
2017-06-11T06:12:11.519Z,57.57
2017-06-11T06:13:25.689Z,57.47
2017-06-11T06:14:41.175Z,57.28
2017-06-11T06:15:56.594Z,57.57
2017-06-11T06:17:12.011Z,57.18
2017-06-11T06:18:27.466Z,57.28
2017-06-11T06:19:42.900Z,57.09
2017-06-11T06:20:58.379Z,56.99
2017-06-11T06:22:14.002Z,57.09
2017-06-11T06:23:29.481Z,57.37
2017-06-11T06:24:44.897Z,57.02
2017-06-11T06:26:00.311Z,56.9
2017-06-11T06:27:14.421Z,56.7
2017-06-11T06:28:29.874Z,56.92
2017-06-11T06:29:45.297Z,56.92
2017-06-11T06:30:59.493Z,56.92
2017-06-11T06:32:13.875Z,56.73
2017-06-11T06:33:29.313Z,57.02
2017-06-11T06:34:44.797Z,57.02
2017-06-11T06:36:00.491Z,57.02
2017-06-11T06:37:16.101Z,57.12
2017-06-11T06:38:31.556Z,56.73
2017-06-11T06:39:47.039Z,56.92
2017-06-11T06:41:02.571Z,56.92
2017-06-11T06:42:17.999Z,57.02
2017-06-11T06:43:33.535Z,56.76
2017-06-11T06:44:49.025Z,56.92
2017-06-11T06:46:04.483Z,56.95
2017-06-11T06:47:19.952Z,57.14
2017-06-11T06:48:35.411Z,56.76
2017-06-11T06:49:50.512Z,56.57
2017-06-11T06:51:04.653Z,56.76
2017-06-11T06:52:20.275Z,56.66
2017-06-11T06:53:35.731Z,56.76
2017-06-11T06:54:51.199Z,56.47
2017-06-11T06:56:06.723Z,56.3
2017-06-11T06:57:22.173Z,55.63
2017-06-11T06:58:37.782Z,56.3
2017-06-11T06:59:53.266Z,55.92
2017-06-11T07:01:08.753Z,56.4
2017-06-11T07:02:22.874Z,56.49
2017-06-11T07:03:37.038Z,55.92
2017-06-11T07:04:51.249Z,55.92
2017-06-11T07:06:06.784Z,55.92
2017-06-11T07:07:22.262Z,55.82
2017-06-11T07:08:37.364Z,55.54
2017-06-11T07:09:52.824Z,55.63
2017-06-11T07:11:08.277Z,55.92
2017-06-11T07:12:22.424Z,56.21
2017-06-11T07:13:37.973Z,55.54
2017-06-11T07:14:52.119Z,55.54
2017-06-11T07:16:06.491Z,55.63
2017-06-11T07:17:21.968Z,55.66
2017-06-11T07:18:37.060Z,55.85
2017-06-11T07:19:52.804Z,55.76
2017-06-11T07:21:08.261Z,55.54
2017-06-11T07:22:37.326Z,55.56
2017-06-11T07:23:52.982Z,55.56
2017-06-11T07:25:08.427Z,55.56
2017-06-11T07:26:23.927Z,55.56
2017-06-11T07:27:39.392Z,55.56
2017-06-11T07:28:54.807Z,55.46
2017-06-11T07:30:10.283Z,55.56
2017-06-11T07:31:25.779Z,55.46
2017-06-11T07:32:39.654Z,55.76
2017-06-11T07:33:55.126Z,56.04
2017-06-11T07:35:10.828Z,55.3
2017-06-11T07:36:26.307Z,55.56
2017-06-11T07:37:41.774Z,55.49
2017-06-11T07:38:57.411Z,55.49
2017-06-11T07:40:11.598Z,55.78
2017-06-11T07:41:24.341Z,55.2
2017-06-11T07:42:39.865Z,54.91
2017-06-11T07:43:55.331Z,55.01
2017-06-11T07:45:10.795Z,55.2
2017-06-11T07:46:26.291Z,55.49
2017-06-11T07:47:41.782Z,55.49
2017-06-11T07:48:57.315Z,55.2
2017-06-11T07:50:12.962Z,55.4
2017-06-11T07:51:28.415Z,54.65
2017-06-11T07:52:43.905Z,55.04
2017-06-11T07:53:59.366Z,55.04
2017-06-11T07:55:14.841Z,54.75
2017-06-11T07:56:28.840Z,54.65
2017-06-11T07:57:42.955Z,54.46
2017-06-11T07:58:58.464Z,54.77
2017-06-11T08:00:12.639Z,54.29
2017-06-11T08:01:28.314Z,53.13
2017-06-11T08:02:43.759Z,52.45
2017-06-11T08:03:59.237Z,51.59
2017-06-11T08:05:13.420Z,51.78
2017-06-11T08:06:28.867Z,51.68
2017-06-11T08:07:44.286Z,51.29
2017-06-11T08:08:59.805Z,51.2
2017-06-11T08:10:15.242Z,51.29
2017-06-11T08:11:30.726Z,50.43
2017-06-11T08:12:45.472Z,49.97
2017-06-11T08:14:00.925Z,49.68
2017-06-11T08:15:16.352Z,49.77
2017-06-11T08:16:31.829Z,49.77
2017-06-11T08:17:45.885Z,49.77
2017-06-11T08:19:01.367Z,49.68
2017-06-11T08:20:15.571Z,49.32
2017-06-11T08:21:31.052Z,48.64
2017-06-11T08:22:46.513Z,49.12
2017-06-11T08:24:02.072Z,49.41
2017-06-11T08:25:17.562Z,49.41
2017-06-11T08:26:33.143Z,49.32
2017-06-11T08:27:48.807Z,49.12
2017-06-11T08:29:04.500Z,48.76
2017-06-11T08:30:19.966Z,47.41
2017-06-11T08:31:35.648Z,46.83
2017-06-11T08:32:51.149Z,46.46
2017-06-11T08:34:06.734Z,45.98
2017-06-11T08:35:20.924Z,45.81
2017-06-11T08:36:36.416Z,44.93
2017-06-11T08:37:50.634Z,45.03
2017-06-11T08:39:04.831Z,44.74
2017-06-11T08:40:20.496Z,43.58
2017-06-11T08:41:34.570Z,42.9
2017-06-11T08:42:50.044Z,42.63
2017-06-11T08:44:05.582Z,41.66
2017-06-11T08:45:52.022Z,41.08
2017-06-11T08:47:07.578Z,40.91
2017-06-11T08:48:23.956Z,40.91
2017-06-11T08:49:40.181Z,40.71
2017-06-11T08:50:56.079Z,40.61
2017-06-11T08:52:12.222Z,41.1
2017-06-11T08:53:28.460Z,41.2
2017-06-11T08:54:44.540Z,41.12
2017-06-11T08:56:00.697Z,40.75
2017-06-11T08:57:16.798Z,39.59
2017-06-11T08:58:33.021Z,39.7
2017-06-11T08:59:49.286Z,38.96
2017-06-11T09:01:05.337Z,37.64
2017-06-11T09:02:21.452Z,36.32
2017-06-11T09:03:37.504Z,35.06
2017-06-11T09:04:53.535Z,33.93
2017-06-11T09:06:09.610Z,33.46
2017-06-11T09:07:25.557Z,32.62
2017-06-11T09:08:41.617Z,32.03
2017-06-11T09:09:57.685Z,31.16
2017-06-11T09:11:13.665Z,30.98
2017-06-11T09:12:29.982Z,30.51
2017-06-11T09:13:46.075Z,29.63
2017-06-11T09:15:02.065Z,29.44
2017-06-11T09:16:18.242Z,28.94
2017-06-11T09:17:34.413Z,28.67
2017-06-11T09:18:49.142Z,28.85
2017-06-11T09:20:05.227Z,28.57
2017-06-11T09:21:21.694Z,28.85
2017-06-11T09:22:37.734Z,28.67
2017-06-11T09:23:53.794Z,28.28
2017-06-11T09:25:09.869Z,27.7
2017-06-11T09:26:26.123Z,28.39
2017-06-11T09:27:42.372Z,28.19
2017-06-11T09:28:57.072Z,28.2
2017-06-11T09:30:12.953Z,27.12
2017-06-11T09:31:29.167Z,26.55
2017-06-11T09:32:45.303Z,26.35
2017-06-11T09:34:01.447Z,26.37
2017-06-11T09:35:17.491Z,26.17
2017-06-11T09:36:33.697Z,25.78
2017-06-11T09:37:49.854Z,25.49
2017-06-11T09:40:35.699Z,25.21
2017-06-11T09:41:51.938Z,24.71
2017-06-11T09:43:08.114Z,24.22
2017-06-11T09:44:24.282Z,24.99
2017-06-11T09:45:40.447Z,24.99
2017-06-11T09:46:56.555Z,25.01
2017-06-11T09:48:12.871Z,24.81
2017-06-11T09:49:29.024Z,24.82
2017-06-11T09:50:45.278Z,24.04
2017-06-11T09:52:01.352Z,23.95
2017-06-11T09:53:17.488Z,23.86
2017-06-11T09:54:33.723Z,23.96
2017-06-11T09:55:49.895Z,22.99
2017-06-11T09:57:06.071Z,23.29
2017-06-11T09:58:22.245Z,23.29
2017-06-11T09:59:38.367Z,22.31
2017-06-11T10:00:54.550Z,21.92
2017-06-11T10:02:10.627Z,21.64
2017-06-11T10:03:26.540Z,21.73
2017-06-11T10:04:42.525Z,21.73
2017-06-11T10:05:58.935Z,22.11
2017-06-11T10:07:15.377Z,22.3
2017-06-11T10:08:32.016Z,22.19
2017-06-11T10:09:48.260Z,22.48
2017-06-11T10:11:04.718Z,22.77
2017-06-11T10:12:19.457Z,22.88
2017-06-11T10:13:35.571Z,22.38
2017-06-11T10:14:51.727Z,22.88
2017-06-11T10:16:07.926Z,23.08
2017-06-11T10:17:24.162Z,22.69
2017-06-11T10:18:40.457Z,22.49
2017-06-11T10:19:56.576Z,22.67
2017-06-11T10:21:12.526Z,22.77
2017-06-11T10:22:28.695Z,22.96
2017-06-11T10:23:44.826Z,22.95
2017-06-11T10:25:00.885Z,23.81
2017-06-11T10:26:17.360Z,23.91
2017-06-11T10:27:46.798Z,24.1
2017-06-11T10:29:02.847Z,24.02
2017-06-11T10:30:19.128Z,23.93
2017-06-11T10:31:34.915Z,23.63
2017-06-11T10:32:50.945Z,23.55
2017-06-11T10:34:07.008Z,23.25
2017-06-11T10:35:23.228Z,22.86
2017-06-11T10:36:38.946Z,23.06
2017-06-11T10:37:54.973Z,23.06
2017-06-11T10:39:09.592Z,22.97
2017-06-11T10:40:25.475Z,23.17
2017-06-11T10:41:41.583Z,22.77
2017-06-11T10:42:57.655Z,22.67
2017-06-11T10:44:12.511Z,22.77
2017-06-11T10:45:28.649Z,23.16
2017-06-11T10:46:44.829Z,22.86
2017-06-11T10:47:59.589Z,23.25
2017-06-11T10:49:15.758Z,23.25
2017-06-11T10:50:31.814Z,23.06
2017-06-11T10:51:47.923Z,23.06
2017-06-11T10:53:04.121Z,22.96
2017-06-11T10:54:20.434Z,22.86
2017-06-11T10:55:37.113Z,23.06
2017-06-11T10:56:53.391Z,23.06
2017-06-11T10:58:09.395Z,23.63
2017-06-11T10:59:25.496Z,23.33
2017-06-11T11:00:41.989Z,23.63
2017-06-11T11:01:58.572Z,24.02
2017-06-11T11:03:15.079Z,24.02
2017-06-11T11:04:31.565Z,24.02
2017-06-11T11:05:48.022Z,23.63
2017-06-11T11:07:04.428Z,23.53
2017-06-11T11:08:19.522Z,22.95
2017-06-11T11:09:36.044Z,23.44
2017-06-11T11:10:52.165Z,23.33
2017-06-11T11:12:06.927Z,22.84
2017-06-11T11:13:23.419Z,23.61
2017-06-11T11:14:39.947Z,23.81
2017-06-11T11:15:57.819Z,24.38
2017-06-11T11:17:17.202Z,24.77
2017-06-11T11:18:33.420Z,24.48
2017-06-11T11:19:49.577Z,24.77
2017-06-11T11:21:05.937Z,24.68
2017-06-11T11:22:22.574Z,24.88
2017-06-11T11:23:38.892Z,24.97
2017-06-11T11:24:55.063Z,24.87
2017-06-11T11:26:11.360Z,24.87
2017-06-11T11:27:27.675Z,25.16
2017-06-11T11:28:44.152Z,25.06
2017-06-11T11:30:00.399Z,25.17
2017-06-11T11:31:16.536Z,24.97
2017-06-11T11:32:32.867Z,24.87
2017-06-11T11:33:48.928Z,24.77
2017-06-11T11:35:05.664Z,24.76
2017-06-11T11:36:22.088Z,24.95
2017-06-11T11:37:36.748Z,25.15
2017-06-11T11:38:52.825Z,25.15
2017-06-11T11:40:22.450Z,25.52
2017-06-11T11:41:38.731Z,25.72
2017-06-11T11:42:54.908Z,25.82
2017-06-11T11:44:11.212Z,25.81
2017-06-11T11:45:27.266Z,25.81
2017-06-11T11:46:44.204Z,26
2017-06-11T11:48:00.413Z,26
2017-06-11T11:49:47.531Z,26.09
2017-06-11T11:51:03.650Z,26.38
2017-06-11T11:52:19.893Z,26.77
2017-06-11T11:53:36.109Z,26.76
2017-06-11T11:54:52.332Z,26.76
2017-06-11T11:56:08.462Z,27.83
2017-06-11T11:57:24.658Z,27.42
2017-06-11T11:58:40.985Z,27.81
2017-06-11T11:59:56.994Z,27.64
2017-06-11T12:01:13.342Z,27.52
2017-06-11T12:03:59.222Z,27.73
2017-06-11T12:05:15.021Z,27.94
2017-06-11T12:06:31.621Z,27.17
2017-06-11T12:07:48.406Z,26.68
2017-06-11T12:09:05.272Z,27.27
2017-06-11T12:10:22.515Z,27.27
2017-06-11T12:11:39.122Z,27.26
2017-06-11T12:12:56.139Z,26.87
2017-06-11T12:14:13.163Z,27.16
2017-06-11T12:15:29.722Z,27.55
2017-06-11T12:16:46.895Z,27.83
2017-06-11T12:18:04.123Z,27.73
2017-06-11T12:19:21.214Z,27.83
2017-06-11T12:20:38.828Z,27.91
2017-06-11T12:21:55.216Z,28.2
2017-06-11T12:23:11.113Z,28.79
2017-06-11T12:24:26.654Z,28.2
2017-06-11T12:25:42.145Z,28.59
2017-06-11T12:26:57.611Z,28.79
2017-06-11T12:28:13.455Z,28.5
2017-06-11T12:29:28.617Z,28.81
2017-06-11T12:30:43.948Z,28.4
2017-06-11T12:31:59.423Z,28.59
2017-06-11T12:33:14.932Z,28.78
2017-06-11T12:34:30.057Z,29.46
2017-06-11T12:35:45.695Z,29.17
2017-06-11T12:36:59.770Z,29.54
2017-06-11T12:38:15.293Z,29.35
2017-06-11T12:39:30.840Z,29.54
2017-06-11T12:40:46.287Z,29.44
2017-06-11T12:42:01.767Z,29.83
2017-06-11T12:43:17.295Z,29.44
2017-06-11T12:44:32.795Z,29.35
2017-06-11T12:45:48.363Z,29.64
2017-06-11T12:47:03.865Z,29.83
2017-06-11T12:48:19.433Z,30.15
2017-06-11T12:49:34.570Z,30.15
2017-06-11T12:50:50.090Z,29.95
2017-06-11T12:52:05.606Z,29.95
2017-06-11T12:53:21.102Z,29.67
2017-06-11T12:54:36.537Z,29.57
2017-06-11T12:55:52.043Z,29.57
2017-06-11T12:57:07.551Z,29.57
2017-06-11T12:58:23.033Z,29.46
2017-06-11T12:59:38.942Z,29.07
2017-06-11T13:00:54.627Z,29.17
2017-06-11T13:02:10.127Z,29.66
2017-06-11T13:03:25.616Z,29.56
2017-06-11T13:04:41.267Z,29.66
2017-06-11T13:05:55.478Z,29.46
2017-06-11T13:07:11.036Z,29.56
2017-06-11T13:08:26.540Z,29.56
2017-06-11T13:09:42.118Z,29.54
2017-06-11T13:10:57.880Z,29.54
2017-06-11T13:12:13.359Z,29.44
2017-06-11T13:13:27.400Z,29.63
2017-06-11T13:14:40.167Z,29.53
2017-06-11T13:15:55.737Z,29.52
2017-06-11T13:17:09.955Z,29.81
2017-06-11T13:18:25.453Z,30.29
2017-06-11T13:19:40.956Z,30.29
2017-06-11T13:20:56.458Z,30.39
2017-06-11T13:22:12.024Z,30.58
2017-06-11T13:23:27.523Z,30.68
2017-06-11T13:24:43.000Z,30.77
2017-06-11T13:25:58.144Z,31.16
2017-06-11T13:27:13.667Z,31.06
2017-06-11T13:28:29.189Z,31.35
2017-06-11T13:29:43.398Z,31.43
2017-06-11T13:30:58.928Z,31.74
2017-06-11T13:32:14.457Z,31.84
2017-06-11T13:33:29.571Z,31.74
2017-06-11T13:34:45.090Z,31.74
2017-06-11T13:36:00.554Z,31.84
2017-06-11T13:37:16.201Z,32.03
2017-06-11T13:38:31.846Z,31.93
2017-06-11T13:39:47.347Z,32.23
2017-06-11T13:41:02.829Z,31.74
2017-06-11T13:42:18.433Z,31.84
2017-06-11T13:43:33.899Z,31.74
2017-06-11T13:44:49.401Z,31.74
2017-06-11T13:46:05.040Z,31.84
2017-06-11T13:47:20.485Z,31.74
2017-06-11T13:48:34.664Z,31.74
2017-06-11T13:49:48.807Z,31.64
2017-06-11T13:51:17.853Z,31.64
2017-06-11T13:52:33.339Z,31.63
2017-06-11T13:53:48.665Z,31.73
2017-06-11T13:55:04.167Z,31.63
2017-06-11T13:56:19.856Z,31.82
2017-06-11T13:57:35.346Z,31.63
2017-06-11T13:58:50.845Z,31.82
2017-06-11T14:00:06.512Z,31.73
2017-06-11T14:01:22.007Z,31.92
2017-06-11T14:02:37.489Z,32.31
2017-06-11T14:03:52.995Z,32.31
2017-06-11T14:05:08.446Z,32.4
2017-06-11T14:06:23.897Z,32.6
2017-06-11T14:07:39.325Z,32.7
2017-06-11T14:08:53.736Z,32.4
2017-06-11T14:10:09.287Z,32.6
2017-06-11T14:11:24.778Z,32.52
2017-06-11T14:12:38.843Z,32.32
2017-06-11T14:13:54.428Z,32.13
2017-06-11T14:15:09.914Z,33.02
2017-06-11T14:16:25.428Z,33.31
2017-06-11T14:17:40.916Z,33.61
2017-06-11T14:18:56.381Z,33.8
2017-06-11T14:20:12.018Z,33.8
2017-06-11T14:21:27.573Z,33.8
2017-06-11T14:22:43.080Z,34
2017-06-11T14:23:58.578Z,34.56
2017-06-11T14:25:14.065Z,34.66
2017-06-11T14:26:29.596Z,34.08
2017-06-11T14:27:45.097Z,34.66
2017-06-11T14:29:00.620Z,34.45
2017-06-11T14:30:16.348Z,34.45
2017-06-11T14:31:31.862Z,34.64
2017-06-11T14:32:47.550Z,34.64
2017-06-11T14:34:01.729Z,34.64
2017-06-11T14:35:17.412Z,34.64
2017-06-11T14:36:32.930Z,34.35
2017-06-11T14:37:48.447Z,34.35
2017-06-11T14:39:03.950Z,34.55
2017-06-11T14:40:19.497Z,34.35
2017-06-11T14:41:34.979Z,34.64
2017-06-11T14:42:50.516Z,33.96
2017-06-11T14:44:06.162Z,33.77
2017-06-11T14:45:20.394Z,33.58
2017-06-11T14:46:35.865Z,33.65
2017-06-11T14:47:51.359Z,33.75
2017-06-11T14:49:06.889Z,34.14
2017-06-11T14:50:22.366Z,34.53
2017-06-11T14:51:37.829Z,34.43
2017-06-11T14:52:53.293Z,34.33
2017-06-11T14:54:07.488Z,34.43
2017-06-11T14:55:22.945Z,34.43
2017-06-11T14:56:38.463Z,34.63
2017-06-11T14:57:52.648Z,34.53
2017-06-11T14:59:08.112Z,34.45
2017-06-11T15:00:23.586Z,34.33
2017-06-11T15:01:39.210Z,34.64
2017-06-11T15:02:54.699Z,34.53
2017-06-11T15:04:08.971Z,34.63
2017-06-11T15:05:24.466Z,34.64
2017-06-11T15:06:39.996Z,34.55
2017-06-11T15:07:55.693Z,34.82
2017-06-11T15:09:11.166Z,34.84
2017-06-11T15:10:26.711Z,35.03
2017-06-11T15:11:42.244Z,34.74
2017-06-11T15:12:57.744Z,34.84
2017-06-11T15:14:13.218Z,35.11
2017-06-11T15:15:28.758Z,35.02
2017-06-11T15:16:44.490Z,35.02
2017-06-11T15:17:59.957Z,35.21
2017-06-11T15:19:15.452Z,35.11
2017-06-11T15:20:30.996Z,35.41
2017-06-11T15:21:46.538Z,35.21
2017-06-11T15:24:29.785Z,35.7
2017-06-11T15:25:45.307Z,35.8
2017-06-11T15:27:00.979Z,35.8
2017-06-11T15:28:16.690Z,35.8
2017-06-11T15:29:32.160Z,36.26
2017-06-11T15:30:47.667Z,36.26
2017-06-11T15:33:32.619Z,36.65
2017-06-11T15:34:48.317Z,37.04
2017-06-11T15:36:03.781Z,37.04
2017-06-11T15:37:19.490Z,37.02
2017-06-11T15:38:34.633Z,37.51
2017-06-11T15:39:50.257Z,37.6
2017-06-11T15:41:04.447Z,37.32
2017-06-11T15:42:19.930Z,37.7
2017-06-11T15:43:35.620Z,37.8
2017-06-11T15:44:51.069Z,37.8
2017-06-11T15:46:05.265Z,38.65
2017-06-11T15:47:20.778Z,38.37
2017-06-11T15:48:36.275Z,38.37
2017-06-11T15:49:51.769Z,38.46
2017-06-11T15:51:06.117Z,38.46
2017-06-11T15:52:21.599Z,38.37
2017-06-11T15:53:37.181Z,38.85
2017-06-11T15:54:52.759Z,39.04
2017-06-11T15:56:08.231Z,39.04
2017-06-11T15:57:23.958Z,39.04
2017-06-11T15:58:39.645Z,39.53
2017-06-11T15:59:55.060Z,39.53
2017-06-11T16:01:10.518Z,39.53
2017-06-11T16:02:26.054Z,39.32
2017-06-11T16:03:41.573Z,39.82
2017-06-11T16:04:57.062Z,39.72
2017-06-11T16:06:09.932Z,39.72
2017-06-11T16:07:24.138Z,39.9
2017-06-11T16:08:39.658Z,39.8
2017-06-11T16:09:55.167Z,39.9
2017-06-11T16:11:10.647Z,39.9
2017-06-11T16:12:24.841Z,40.09
2017-06-11T16:13:40.371Z,40.11
2017-06-11T16:14:55.885Z,40.31
2017-06-11T16:16:11.387Z,40.6
2017-06-11T16:17:27.146Z,40.6
2017-06-11T16:18:42.287Z,40.79
2017-06-11T16:19:57.736Z,40.79
2017-06-11T16:21:13.406Z,40.58
2017-06-11T16:22:28.931Z,40.31
2017-06-11T16:23:44.498Z,40.6
2017-06-11T16:25:00.009Z,41.08
2017-06-11T16:26:15.603Z,40.99
2017-06-11T16:27:31.100Z,40.79